Weather at El Capitan Lodge Seaplane Base

Public forecast

Using degrees Fahrenheit for public forecast. Weather courtesy of forecast.io.

Closest aviation weather report (METAR) to El Capitan Lodge Seaplane Base

Closest report is Klawock Airport, 23.6 nm (43.6 km) SSE. Retrieved 2020/11/27 21:53 UTC (41 minutes ago):

PAKW 272153Z AUTO 00000KT 9SM CLR 02/00 A2979 RMK AO2 SLP088 T00170000 TSNO PNO

Closest aviation forecast (TAF) to El Capitan Lodge Seaplane Base

Closest forecast is Klawock Airport, 23.6 nm (43.6 km) SSE. Retrieved 2020/11/27 18:39 UTC (4 hours ago):

TAF PAKW 271737Z 2718/2818 VRB03KT P6SM OVC200 FM280600 11004KT P6SM -SHRA OVC050 FM281500 14012KT P6SM -RA SCT025 OVC050 WS020/15035KT AMD LTD TO CLD VIS AND WIND